createdAt,value
2018-08-06T00:00:03.597Z,27.00
2018-08-06T00:03:28.291Z,27.28
2018-08-06T00:06:52.969Z,27.37
2018-08-06T00:10:20.969Z,26.95
2018-08-06T00:13:45.974Z,27.06
2018-08-06T00:17:10.685Z,26.71
2018-08-06T00:20:35.490Z,26.69
2018-08-06T00:24:00.190Z,26.67
2018-08-06T00:27:25.621Z,26.75
2018-08-06T00:30:50.360Z,26.64
2018-08-06T00:34:15.244Z,26.68
2018-08-06T00:37:40.186Z,26.46
2018-08-06T00:41:05.320Z,26.33
2018-08-06T00:44:30.437Z,26.08
2018-08-06T00:47:56.212Z,26.08
2018-08-06T00:51:21.086Z,26.02
2018-08-06T00:54:45.948Z,26.72
2018-08-06T00:58:10.770Z,26.20
2018-08-06T01:01:35.687Z,26.65
2018-08-06T01:05:00.576Z,26.22
2018-08-06T01:09:54.483Z,25.83
2018-08-06T01:13:19.437Z,25.86
2018-08-06T01:18:08.611Z,26.65
2018-08-06T01:21:33.391Z,26.32
2018-08-06T01:24:58.065Z,26.18
2018-08-06T01:28:22.749Z,25.84
2018-08-06T01:31:47.495Z,26.17
2018-08-06T01:35:13.261Z,25.96
2018-08-06T01:38:38.099Z,25.83
2018-08-06T01:42:02.553Z,25.95
2018-08-06T01:45:27.348Z,25.38
2018-08-06T01:48:52.254Z,25.97
2018-08-06T01:52:17.221Z,25.58
2018-08-06T01:55:41.983Z,25.71
2018-08-06T01:59:06.669Z,26.15
2018-08-06T02:02:31.412Z,25.58
2018-08-06T02:05:56.151Z,25.58
2018-08-06T02:09:20.853Z,25.32
2018-08-06T02:12:46.095Z,25.52
2018-08-06T02:16:10.849Z,25.61
2018-08-06T02:19:35.549Z,25.47
2018-08-06T02:23:00.232Z,25.41
2018-08-06T02:26:24.855Z,25.31
2018-08-06T02:29:49.595Z,25.09
2018-08-06T02:33:14.466Z,25.79
2018-08-06T02:36:39.261Z,25.75
2018-08-06T02:40:04.143Z,25.36
2018-08-06T02:43:28.807Z,25.45
2018-08-06T02:46:53.636Z,25.39
2018-08-06T02:50:18.275Z,25.56
2018-08-06T02:53:42.916Z,25.30
2018-08-06T02:57:07.781Z,25.61
2018-08-06T03:00:32.552Z,25.19
2018-08-06T03:03:56.913Z,25.12
2018-08-06T03:07:21.399Z,24.86
2018-08-06T03:10:46.217Z,24.82
2018-08-06T03:14:12.267Z,25.03
2018-08-06T03:17:37.241Z,26.11
2018-08-06T03:21:01.945Z,25.34
2018-08-06T03:24:26.752Z,25.01
2018-08-06T03:27:51.629Z,26.14
2018-08-06T03:31:16.694Z,25.26
2018-08-06T03:34:41.493Z,24.98
2018-08-06T03:38:07.426Z,25.32
2018-08-06T03:41:32.360Z,25.35
2018-08-06T03:44:57.085Z,25.56
2018-08-06T03:48:21.871Z,25.10
2018-08-06T03:51:46.672Z,25.20
2018-08-06T03:55:12.199Z,24.51
2018-08-06T03:58:36.904Z,24.46
2018-08-06T04:02:01.689Z,24.46
2018-08-06T04:05:26.409Z,23.99
2018-08-06T04:08:51.270Z,24.80
2018-08-06T04:12:16.062Z,24.66
2018-08-06T04:15:40.759Z,25.20
2018-08-06T04:19:05.668Z,25.96
2018-08-06T04:22:30.446Z,25.24
2018-08-06T04:25:55.399Z,24.29
2018-08-06T04:29:20.170Z,25.57
2018-08-06T04:32:46.181Z,24.59
2018-08-06T04:36:10.902Z,24.76
2018-08-06T04:39:35.651Z,24.65
2018-08-06T04:43:00.402Z,25.44
2018-08-06T04:46:24.790Z,25.42
2018-08-06T04:49:50.559Z,24.78
2018-08-06T04:53:15.360Z,25.24
2018-08-06T04:56:40.080Z,25.32
2018-08-06T05:00:07.546Z,25.49
2018-08-06T05:03:32.454Z,24.93
2018-08-06T05:07:00.603Z,24.85
2018-08-06T05:10:25.222Z,24.90
2018-08-06T05:13:49.978Z,24.79
2018-08-06T05:17:20.316Z,25.12
2018-08-06T05:20:45.185Z,24.80
2018-08-06T05:24:09.942Z,24.33
2018-08-06T05:27:34.707Z,24.74
2018-08-06T05:30:59.360Z,24.57
2018-08-06T05:34:24.110Z,24.80
2018-08-06T05:37:48.829Z,24.72
2018-08-06T05:41:13.571Z,24.69
2018-08-06T05:44:38.286Z,25.23
2018-08-06T05:48:03.120Z,25.30
2018-08-06T05:51:27.552Z,24.32
2018-08-06T05:54:52.479Z,24.25
2018-08-06T05:58:17.518Z,24.84
2018-08-06T06:01:42.345Z,24.45
2018-08-06T06:05:07.198Z,25.18
2018-08-06T06:08:32.070Z,24.72
2018-08-06T06:11:56.479Z,25.19
2018-08-06T06:15:21.254Z,25.24
2018-08-06T06:18:45.617Z,25.36
2018-08-06T06:22:10.441Z,25.23
2018-08-06T06:25:35.215Z,25.37
2018-08-06T06:29:00.009Z,25.49
2018-08-06T06:32:24.780Z,25.53
2018-08-06T06:35:49.238Z,26.02
2018-08-06T06:39:13.905Z,25.83
2018-08-06T06:42:38.647Z,25.20
2018-08-06T06:46:03.448Z,26.17
2018-08-06T06:49:28.120Z,25.85
2018-08-06T06:52:52.982Z,26.26
2018-08-06T06:56:17.874Z,26.26
2018-08-06T06:59:43.645Z,26.20
2018-08-06T07:03:08.415Z,26.56
2018-08-06T07:06:33.226Z,26.11
2018-08-06T07:09:57.921Z,26.36
2018-08-06T07:13:22.628Z,26.48
2018-08-06T07:16:46.993Z,26.64
2018-08-06T07:20:11.566Z,27.04
2018-08-06T07:23:36.390Z,26.74
2018-08-06T07:27:01.178Z,26.88
2018-08-06T07:30:26.787Z,26.74
2018-08-06T07:33:51.199Z,27.08
2018-08-06T07:37:15.982Z,27.30
2018-08-06T07:40:40.787Z,27.30
2018-08-06T07:44:05.742Z,27.05
2018-08-06T07:47:30.630Z,26.99
2018-08-06T07:50:55.397Z,27.36
2018-08-06T07:54:19.763Z,27.43
2018-08-06T07:57:44.671Z,27.70
2018-08-06T08:01:09.433Z,27.76
2018-08-06T08:04:34.139Z,27.63
2018-08-06T08:07:58.954Z,27.54
2018-08-06T08:11:23.641Z,27.55
2018-08-06T08:14:48.313Z,27.83
2018-08-06T08:18:13.111Z,27.93
2018-08-06T08:21:37.828Z,27.93
2018-08-06T08:25:02.526Z,27.77
2018-08-06T08:28:27.248Z,27.63
2018-08-06T08:31:52.186Z,27.90
2018-08-06T08:35:17.756Z,27.96
2018-08-06T08:38:42.111Z,28.36
2018-08-06T08:42:07.158Z,28.06
2018-08-06T08:45:31.918Z,27.95
2018-08-06T08:48:56.714Z,28.16
2018-08-06T08:52:21.266Z,27.96
2018-08-06T08:55:47.348Z,28.14
2018-08-06T08:59:12.352Z,28.19
2018-08-06T09:02:37.574Z,28.47
2018-08-06T09:06:03.924Z,28.58
2018-08-06T09:09:28.480Z,28.40
2018-08-06T09:12:53.610Z,28.46
2018-08-06T09:16:18.290Z,28.72
2018-08-06T09:19:42.964Z,28.67
2018-08-06T09:23:07.864Z,28.77
2018-08-06T09:26:32.546Z,28.76
2018-08-06T09:29:57.264Z,28.83
2018-08-06T09:33:22.062Z,28.88
2018-08-06T09:36:46.935Z,28.93
2018-08-06T09:40:14.741Z,29.20
2018-08-06T09:43:39.440Z,29.07
2018-08-06T09:47:05.219Z,29.27
2018-08-06T09:50:30.580Z,29.36
2018-08-06T09:53:55.494Z,29.45
2018-08-06T09:57:20.335Z,29.62
2018-08-06T10:00:51.604Z,29.56
2018-08-06T10:04:16.337Z,29.24
2018-08-06T10:07:41.124Z,29.68
2018-08-06T10:11:06.944Z,29.88
2018-08-06T10:14:32.380Z,29.49
2018-08-06T10:17:56.803Z,29.57
2018-08-06T10:21:22.734Z,29.85
2018-08-06T10:24:47.467Z,30.05
2018-08-06T10:28:12.278Z,29.62
2018-08-06T10:31:37.011Z,30.36
2018-08-06T10:35:01.793Z,30.48
2018-08-06T10:38:26.516Z,29.93
2018-08-06T10:41:51.222Z,30.54
2018-08-06T10:45:19.021Z,30.38
2018-08-06T10:48:44.176Z,30.07
2018-08-06T10:52:08.851Z,29.69
2018-08-06T10:55:33.604Z,30.36
2018-08-06T10:58:58.410Z,29.84
2018-08-06T11:02:22.753Z,29.74
2018-08-06T11:05:47.424Z,29.70
2018-08-06T11:09:12.167Z,29.71
2018-08-06T11:12:37.524Z,29.68
2018-08-06T11:16:04.406Z,30.46
2018-08-06T11:19:29.283Z,29.98
2018-08-06T11:22:54.172Z,30.03
2018-08-06T11:26:18.912Z,31.32
2018-08-06T11:29:43.700Z,30.85
2018-08-06T11:33:08.500Z,31.10
2018-08-06T11:36:33.219Z,31.65
2018-08-06T11:39:58.059Z,31.25
2018-08-06T11:43:22.802Z,30.32
2018-08-06T11:46:47.548Z,31.16
2018-08-06T11:50:12.333Z,31.64
2018-08-06T11:53:37.020Z,31.56
2018-08-06T11:57:01.722Z,31.66
2018-08-06T12:00:27.756Z,30.86
2018-08-06T12:03:52.661Z,31.88
2018-08-06T12:07:17.386Z,30.52
2018-08-06T12:10:42.159Z,30.07
2018-08-06T12:14:06.966Z,30.51
2018-08-06T12:17:31.668Z,31.34
2018-08-06T12:20:56.411Z,31.85
2018-08-06T12:24:21.170Z,31.55
2018-08-06T12:27:46.746Z,31.83
2018-08-06T12:31:11.620Z,31.79
2018-08-06T12:34:36.296Z,32.47
2018-08-06T12:38:01.168Z,32.19
2018-08-06T12:41:26.058Z,30.95
2018-08-06T12:44:50.912Z,32.31
2018-08-06T12:48:15.904Z,32.24
2018-08-06T12:51:40.737Z,31.82
2018-08-06T12:55:06.952Z,32.85
2018-08-06T12:58:31.869Z,31.75
2018-08-06T13:01:56.740Z,30.66
2018-08-06T13:05:22.173Z,31.75
2018-08-06T13:08:46.958Z,32.34
2018-08-06T13:12:12.204Z,32.31
2018-08-06T13:15:36.939Z,32.74
2018-08-06T13:19:01.758Z,31.64
2018-08-06T13:22:26.497Z,31.47
2018-08-06T13:25:51.286Z,32.38
2018-08-06T13:29:15.623Z,32.86
2018-08-06T13:32:40.470Z,32.44
2018-08-06T13:36:05.225Z,31.44
2018-08-06T13:39:29.965Z,32.80
2018-08-06T13:42:54.739Z,31.35
2018-08-06T13:46:19.550Z,31.11
2018-08-06T13:49:44.276Z,31.50
2018-08-06T13:53:09.001Z,31.70
2018-08-06T13:56:33.576Z,33.35
2018-08-06T13:59:58.316Z,32.47
2018-08-06T14:03:23.026Z,32.78
2018-08-06T14:06:48.051Z,31.77
2018-08-06T14:10:12.878Z,32.87
2018-08-06T14:13:37.214Z,32.71
2018-08-06T14:17:01.848Z,32.36
2018-08-06T14:20:26.648Z,33.18
2018-08-06T14:23:51.350Z,33.06
2018-08-06T14:27:16.178Z,33.32
2018-08-06T14:30:40.902Z,33.49
2018-08-06T14:34:05.942Z,31.96
2018-08-06T14:37:30.631Z,33.27
2018-08-06T14:40:55.371Z,31.63
2018-08-06T14:44:20.232Z,32.57
2018-08-06T14:47:45.063Z,33.54
2018-08-06T14:51:10.215Z,33.45
2018-08-06T14:54:35.051Z,33.79
2018-08-06T14:57:59.721Z,33.49
2018-08-06T15:01:24.435Z,32.45
2018-08-06T15:04:49.068Z,33.48
2018-08-06T15:08:13.790Z,33.63
2018-08-06T15:11:38.577Z,32.82
2018-08-06T15:15:02.993Z,32.81
2018-08-06T15:18:27.722Z,32.46
2018-08-06T15:21:52.032Z,32.83
2018-08-06T15:25:19.249Z,33.28
2018-08-06T15:28:43.556Z,33.33
2018-08-06T15:32:09.488Z,32.88
2018-08-06T15:35:34.155Z,31.38
2018-08-06T15:38:58.989Z,31.34
2018-08-06T15:42:23.723Z,31.34
2018-08-06T15:45:48.446Z,31.51
2018-08-06T15:49:13.270Z,31.61
2018-08-06T15:52:38.016Z,32.05
2018-08-06T15:56:02.862Z,31.83
2018-08-06T15:59:27.556Z,31.54
2018-08-06T16:02:52.413Z,31.30
2018-08-06T16:06:17.123Z,31.11
2018-08-06T16:09:41.810Z,31.07
2018-08-06T16:13:06.604Z,30.64
2018-08-06T16:16:31.320Z,30.50
2018-08-06T16:19:55.718Z,30.71
2018-08-06T16:23:20.577Z,30.57
2018-08-06T16:26:45.312Z,30.40
2018-08-06T16:30:20.522Z,30.37
2018-08-06T16:33:45.196Z,30.40
2018-08-06T16:37:09.964Z,30.19
2018-08-06T16:40:34.671Z,30.06
2018-08-06T16:43:59.418Z,30.02
2018-08-06T16:47:24.172Z,29.89
2018-08-06T16:50:48.922Z,29.89
2018-08-06T16:54:13.660Z,29.93
2018-08-06T16:57:38.400Z,29.89
2018-08-06T17:01:03.319Z,29.81
2018-08-06T17:04:28.804Z,29.91
2018-08-06T17:07:53.543Z,29.81
2018-08-06T17:11:18.369Z,29.78
2018-08-06T17:14:43.052Z,29.81
2018-08-06T17:18:07.784Z,29.74
2018-08-06T17:21:33.597Z,29.69
2018-08-06T17:24:59.581Z,29.75
2018-08-06T17:28:24.441Z,29.69
2018-08-06T17:31:50.750Z,29.67
2018-08-06T17:35:16.912Z,29.67
2018-08-06T17:38:41.793Z,29.81
2018-08-06T17:42:06.643Z,29.83
2018-08-06T17:45:31.516Z,29.65
2018-08-06T17:48:56.229Z,29.70
2018-08-06T17:52:21.379Z,29.68
2018-08-06T17:55:46.182Z,29.65
2018-08-06T17:59:10.940Z,29.56
2018-08-06T18:02:35.981Z,29.64
2018-08-06T18:06:00.767Z,29.59
2018-08-06T18:09:25.617Z,29.48
2018-08-06T18:12:49.973Z,29.51
2018-08-06T18:16:14.682Z,29.59
2018-08-06T18:19:39.079Z,29.52
2018-08-06T18:23:04.106Z,29.51
2018-08-06T18:26:29.630Z,29.31
2018-08-06T18:29:54.032Z,29.41
2018-08-06T18:33:19.466Z,29.26
2018-08-06T18:36:44.348Z,29.49
2018-08-06T18:40:10.119Z,29.44
2018-08-06T18:43:34.795Z,29.47
2018-08-06T18:46:59.522Z,29.32
2018-08-06T18:50:24.428Z,29.30
2018-08-06T18:53:48.895Z,29.28
2018-08-06T18:57:13.742Z,29.16
2018-08-06T19:00:38.441Z,29.07
2018-08-06T19:04:03.228Z,28.89
2018-08-06T19:07:28.056Z,29.14
2018-08-06T19:10:52.807Z,28.98
2018-08-06T19:14:19.063Z,29.24
2018-08-06T19:17:49.171Z,28.73
2018-08-06T19:21:13.844Z,28.55
2018-08-06T19:24:43.868Z,28.90
2018-08-06T19:28:08.669Z,29.12
2018-08-06T19:31:33.396Z,29.09
2018-08-06T19:34:58.176Z,29.11
2018-08-06T19:38:22.492Z,28.86
2018-08-06T19:41:47.394Z,28.99
2018-08-06T19:45:12.779Z,28.57
2018-08-06T19:48:37.580Z,28.55
2018-08-06T19:52:02.340Z,28.81
2018-08-06T19:55:32.071Z,28.40
2018-08-06T19:58:56.738Z,28.85
2018-08-06T20:02:21.515Z,29.06
2018-08-06T20:05:46.162Z,28.63
2018-08-06T20:09:13.903Z,28.73
2018-08-06T20:12:38.602Z,28.49
2018-08-06T20:16:03.070Z,28.78
2018-08-06T20:19:27.877Z,28.80
2018-08-06T20:22:52.619Z,28.78
2018-08-06T20:26:16.997Z,28.53
2018-08-06T20:29:41.808Z,28.70
2018-08-06T20:33:07.533Z,28.39
2018-08-06T20:36:32.261Z,28.52
2018-08-06T20:39:56.643Z,28.12
2018-08-06T20:43:21.461Z,28.16
2018-08-06T20:46:46.108Z,28.40
2018-08-06T20:50:13.805Z,28.54
2018-08-06T20:53:38.556Z,28.19
2018-08-06T20:57:03.268Z,28.01
2018-08-06T21:00:28.099Z,28.46
2018-08-06T21:03:52.819Z,27.90
2018-08-06T21:07:17.563Z,27.66
2018-08-06T21:10:42.261Z,28.40
2018-08-06T21:14:07.064Z,28.48
2018-08-06T21:17:31.466Z,28.59
2018-08-06T21:20:55.759Z,27.46
2018-08-06T21:24:20.407Z,28.05
2018-08-06T21:27:46.287Z,28.32
2018-08-06T21:31:10.973Z,28.49
2018-08-06T21:34:35.652Z,28.60
2018-08-06T21:38:00.403Z,28.10
2018-08-06T21:41:25.105Z,28.16
2018-08-06T21:44:49.730Z,28.24
2018-08-06T21:48:14.432Z,28.33
2018-08-06T21:51:39.113Z,28.23
2018-08-06T21:55:03.792Z,27.82
2018-08-06T21:58:28.540Z,27.12
2018-08-06T22:01:53.318Z,27.32
2018-08-06T22:05:17.978Z,27.33
2018-08-06T22:08:42.685Z,28.15
2018-08-06T22:12:07.315Z,27.68
2018-08-06T22:15:31.657Z,27.59
2018-08-06T22:18:56.563Z,27.69
2018-08-06T22:22:20.836Z,26.61
2018-08-06T22:25:45.184Z,26.67
2018-08-06T22:29:09.824Z,26.26
2018-08-06T22:32:34.755Z,26.74
2018-08-06T22:35:59.400Z,27.57
2018-08-06T22:39:24.160Z,27.04
2018-08-06T22:42:48.538Z,26.56
2018-08-06T22:46:13.197Z,26.41
2018-08-06T22:49:37.817Z,26.49
2018-08-06T22:53:02.490Z,26.31
2018-08-06T22:56:26.773Z,26.60
2018-08-06T22:59:51.432Z,27.79
2018-08-06T23:03:16.238Z,27.45
2018-08-06T23:06:40.895Z,26.96
2018-08-06T23:10:09.068Z,27.52
2018-08-06T23:13:33.733Z,26.92
2018-08-06T23:16:58.376Z,27.60
2018-08-06T23:20:22.634Z,27.03
2018-08-06T23:23:47.352Z,27.69
2018-08-06T23:27:12.105Z,28.31
2018-08-06T23:30:37.820Z,27.34
2018-08-06T23:34:02.495Z,26.90
2018-08-06T23:37:27.137Z,27.77
2018-08-06T23:40:51.769Z,27.81
2018-08-06T23:44:16.498Z,27.65
2018-08-06T23:47:41.501Z,27.85
2018-08-06T23:51:06.558Z,27.79
2018-08-06T23:54:31.236Z,26.91
2018-08-06T23:57:55.912Z,27.59
